createdAt,value
2022-09-23T00:02:30.975Z,7.88
2022-09-23T00:05:16.244Z,7.87
2022-09-23T00:08:01.633Z,7.85
2022-09-23T00:10:47.061Z,7.86
2022-09-23T00:13:32.849Z,7.83
2022-09-23T00:16:28.075Z,7.80
2022-09-23T00:19:13.242Z,7.79
2022-09-23T00:21:59.805Z,7.77
2022-09-23T00:24:44.695Z,7.80
2022-09-23T00:27:30.344Z,7.82
2022-09-23T00:30:15.199Z,7.84
2022-09-23T00:33:00.615Z,7.82
2022-09-23T00:35:46.789Z,7.80
2022-09-23T00:38:33.520Z,7.74
2022-09-23T00:41:18.509Z,7.69
2022-09-23T00:44:43.972Z,7.70
2022-09-23T00:47:39.076Z,7.72
2022-09-23T00:50:31.702Z,7.72
2022-09-23T00:53:21.456Z,7.71
2022-09-23T00:56:09.689Z,7.66
2022-09-23T00:58:54.581Z,7.64
2022-09-23T01:01:39.900Z,7.64
2022-09-23T01:04:27.599Z,7.60
2022-09-23T01:07:13.172Z,7.54
2022-09-23T01:10:00.064Z,7.56
2022-09-23T01:13:15.614Z,7.59
2022-09-23T01:16:09.399Z,7.61
2022-09-23T01:18:58.681Z,7.57
2022-09-23T01:21:56.502Z,7.55
2022-09-23T01:24:58.875Z,7.53
2022-09-23T01:28:14.002Z,7.56
2022-09-23T01:31:04.719Z,7.57
2022-09-23T01:33:50.562Z,7.57
2022-09-23T01:36:55.545Z,7.52
2022-09-23T01:39:57.564Z,7.46
2022-09-23T01:42:55.831Z,7.42
2022-09-23T01:45:46.180Z,7.43
2022-09-23T01:48:44.190Z,7.42
2022-09-23T01:51:42.921Z,7.43
2022-09-23T01:54:50.107Z,7.45
2022-09-23T01:57:43.023Z,7.40
2022-09-23T02:00:34.372Z,7.37
2022-09-23T02:03:33.461Z,7.31
2022-09-23T02:06:26.851Z,7.32
2022-09-23T02:09:16.243Z,7.30
2022-09-23T02:12:08.271Z,7.30
2022-09-23T02:15:03.393Z,7.31
2022-09-23T02:17:53.812Z,7.31
2022-09-23T02:20:41.815Z,7.32
2022-09-23T02:23:33.390Z,7.37
2022-09-23T02:26:25.171Z,7.39
2022-09-23T02:29:24.112Z,7.42
2022-09-23T02:32:29.822Z,7.40
2022-09-23T02:35:32.508Z,7.39
2022-09-23T02:38:25.496Z,7.37
2022-09-23T02:41:15.335Z,7.39
2022-09-23T02:44:07.676Z,7.39
2022-09-23T02:46:55.243Z,7.40
2022-09-23T02:49:40.262Z,7.38
2022-09-23T02:52:25.276Z,7.36
2022-09-23T02:55:11.696Z,7.36
2022-09-23T02:57:57.379Z,7.35
2022-09-23T03:01:22.988Z,7.36
2022-09-23T03:04:26.139Z,7.36
2022-09-23T03:07:20.958Z,7.35
2022-09-23T03:10:18.923Z,7.36
2022-09-23T03:13:14.921Z,7.40
2022-09-23T03:16:12.405Z,7.43
2022-09-23T03:19:00.521Z,7.41
2022-09-23T03:21:51.162Z,7.40
2022-09-23T03:24:39.306Z,7.40
2022-09-23T03:27:28.530Z,7.42
2022-09-23T03:30:13.831Z,7.39
2022-09-23T03:33:00.356Z,7.40
2022-09-23T03:36:13.039Z,7.42
2022-09-23T03:39:05.990Z,7.41
2022-09-23T03:41:54.772Z,7.40
2022-09-23T03:44:48.383Z,7.43
2022-09-23T03:47:33.345Z,7.43
2022-09-23T03:50:18.465Z,7.43
2022-09-23T03:53:03.430Z,7.40
2022-09-23T03:55:48.414Z,7.40
2022-09-23T03:58:33.475Z,7.38
2022-09-23T04:01:18.359Z,7.37
2022-09-23T04:04:03.350Z,7.36
2022-09-23T04:06:48.263Z,7.35
2022-09-23T04:09:34.531Z,7.37
2022-09-23T04:12:19.506Z,7.40
2022-09-23T04:15:04.786Z,7.37
2022-09-23T04:17:49.659Z,7.36
2022-09-23T04:20:34.585Z,7.36
2022-09-23T04:23:19.484Z,7.34
2022-09-23T04:26:05.617Z,7.34
2022-09-23T04:28:50.406Z,7.34
2022-09-23T04:31:35.549Z,7.36
2022-09-23T04:34:20.657Z,7.34
2022-09-23T04:37:06.132Z,7.35
2022-09-23T04:39:50.863Z,7.36
2022-09-23T04:42:35.860Z,7.38
2022-09-23T04:45:20.881Z,7.39
2022-09-23T04:48:05.884Z,7.40
2022-09-23T04:50:50.946Z,7.39
2022-09-23T04:53:37.743Z,7.38
2022-09-23T04:56:28.239Z,7.36
2022-09-23T04:59:12.948Z,7.37
2022-09-23T05:01:57.792Z,7.39
2022-09-23T05:04:42.777Z,7.42
2022-09-23T05:07:27.687Z,7.48
2022-09-23T05:10:13.107Z,7.47
2022-09-23T05:12:58.840Z,7.47
2022-09-23T05:15:43.804Z,7.44
2022-09-23T05:18:45.920Z,7.38
2022-09-23T05:21:31.186Z,7.45
2022-09-23T05:24:16.219Z,7.51
2022-09-23T05:27:01.102Z,7.52
2022-09-23T05:29:47.115Z,7.56
2022-09-23T05:32:32.918Z,7.65
2022-09-23T05:35:17.996Z,7.72
2022-09-23T05:38:03.152Z,7.88
2022-09-23T05:41:01.416Z,7.98
2022-09-23T05:43:50.373Z,7.91
2022-09-23T05:46:36.432Z,7.87
2022-09-23T05:49:33.050Z,7.88
2022-09-23T05:52:27.272Z,7.93
2022-09-23T05:55:12.873Z,7.97
2022-09-23T05:57:59.129Z,7.98
2022-09-23T06:00:44.160Z,7.99
2022-09-23T06:03:29.130Z,7.92
2022-09-23T06:06:17.339Z,7.87
2022-09-23T06:09:03.687Z,7.88
2022-09-23T06:11:50.843Z,7.88
2022-09-23T06:14:36.648Z,7.87
2022-09-23T06:17:22.278Z,7.88
2022-09-23T06:20:07.676Z,7.94
2022-09-23T06:22:55.605Z,8.00
2022-09-23T06:25:41.110Z,7.97
2022-09-23T06:28:30.748Z,8.07
2022-09-23T06:31:17.491Z,8.06
2022-09-23T06:34:11.748Z,8.09
2022-09-23T06:37:17.961Z,8.07
2022-09-23T06:40:24.555Z,8.02
2022-09-23T06:43:18.252Z,8.08
2022-09-23T06:46:31.252Z,8.12
2022-09-23T06:49:16.443Z,8.12
2022-09-23T06:52:03.595Z,8.19
2022-09-23T06:54:52.424Z,8.21
2022-09-23T06:57:45.797Z,8.25
2022-09-23T07:00:37.330Z,8.31
2022-09-23T07:03:24.434Z,8.38
2022-09-23T07:06:12.727Z,8.38
2022-09-23T07:08:58.368Z,8.46
2022-09-23T07:11:43.559Z,8.54
2022-09-23T07:14:29.771Z,8.52
2022-09-23T07:17:16.821Z,8.67
2022-09-23T07:20:09.344Z,8.67
2022-09-23T07:22:54.659Z,8.70
2022-09-23T07:25:40.414Z,8.72
2022-09-23T07:28:40.320Z,8.69
2022-09-23T07:31:38.670Z,8.73
2022-09-23T07:34:28.453Z,8.76
2022-09-23T07:37:17.012Z,8.77
2022-09-23T07:40:07.353Z,8.86
2022-09-23T07:43:13.532Z,8.87
2022-09-23T07:47:06.746Z,9.01
2022-09-23T07:49:54.016Z,9.21
2022-09-23T07:52:41.779Z,9.32
2022-09-23T07:55:26.630Z,9.48
2022-09-23T07:58:11.491Z,9.64
2022-09-23T08:01:09.388Z,9.51
2022-09-23T08:03:59.383Z,9.39
2022-09-23T08:06:47.255Z,9.50
2022-09-23T08:09:38.900Z,9.70
2022-09-23T08:12:24.081Z,9.69
2022-09-23T08:15:12.505Z,9.89
2022-09-23T08:18:02.460Z,9.96
2022-09-23T08:20:48.194Z,10.11
2022-09-23T08:23:33.912Z,10.43
2022-09-23T08:26:22.107Z,10.59
2022-09-23T08:29:11.466Z,10.74
2022-09-23T08:31:57.299Z,10.66
2022-09-23T08:34:42.532Z,10.55
2022-09-23T08:37:27.489Z,10.41
2022-09-23T08:40:12.556Z,10.30
2022-09-23T08:43:01.963Z,10.31
2022-09-23T08:45:55.231Z,10.29
2022-09-23T08:48:47.461Z,10.23
2022-09-23T08:51:44.943Z,10.19
2022-09-23T08:54:53.242Z,10.22
2022-09-23T08:58:26.557Z,10.37
2022-09-23T09:01:40.957Z,10.45
2022-09-23T09:04:41.962Z,10.22
2022-09-23T09:07:37.002Z,10.22
2022-09-23T09:10:29.170Z,10.34
2022-09-23T09:13:48.380Z,10.56
2022-09-23T09:17:20.152Z,10.89
2022-09-23T09:20:35.106Z,11.29
2022-09-23T09:23:34.283Z,11.07
2022-09-23T09:26:29.109Z,10.85
2022-09-23T09:29:36.126Z,10.61
2022-09-23T09:33:15.053Z,10.32
2022-09-23T09:36:09.284Z,10.16
2022-09-23T09:38:56.604Z,10.37
2022-09-23T09:41:47.251Z,10.81
2022-09-23T09:44:40.042Z,11.07
2022-09-23T09:48:05.295Z,11.41
2022-09-23T09:50:52.981Z,11.52
2022-09-23T09:53:38.285Z,11.51
2022-09-23T09:56:33.879Z,11.65
2022-09-23T09:59:25.597Z,11.69
2022-09-23T10:02:13.803Z,12.17
2022-09-23T10:05:01.535Z,12.39
2022-09-23T10:07:47.981Z,12.52
2022-09-23T10:10:33.872Z,12.40
2022-09-23T10:13:26.863Z,12.16
2022-09-23T10:16:15.025Z,11.78
2022-09-23T10:19:16.812Z,11.38
2022-09-23T10:22:08.174Z,11.26
2022-09-23T10:24:54.544Z,11.05
2022-09-23T10:27:39.539Z,11.24
2022-09-23T10:30:27.631Z,11.33
2022-09-23T10:33:26.486Z,11.34
2022-09-23T10:36:11.368Z,11.14
2022-09-23T10:39:27.295Z,10.52
2022-09-23T10:42:43.593Z,9.88
2022-09-23T10:45:57.676Z,9.61
2022-09-23T10:49:16.390Z,9.58
2022-09-23T10:52:22.713Z,9.83
2022-09-23T10:55:16.275Z,10.12
2022-09-23T10:58:03.702Z,10.63
2022-09-23T11:01:15.957Z,11.28
2022-09-23T11:04:09.580Z,11.98
2022-09-23T11:11:46.262Z,12.15
2022-09-23T11:15:01.320Z,12.07
2022-09-23T11:18:06.060Z,11.94
2022-09-23T11:21:38.410Z,11.71
2022-09-23T11:24:41.266Z,11.43
2022-09-23T11:27:35.882Z,11.25
2022-09-23T11:30:21.242Z,11.05
2022-09-23T11:33:32.063Z,10.88
2022-09-23T11:36:38.264Z,10.75
2022-09-23T11:39:30.075Z,10.59
2022-09-23T11:42:24.675Z,10.42
2022-09-23T11:45:21.634Z,10.37
2022-09-23T11:48:20.690Z,10.35
2022-09-23T11:51:10.848Z,10.32
2022-09-23T11:54:01.458Z,10.37
2022-09-23T11:56:51.502Z,10.39
2022-09-23T11:59:45.699Z,10.44
2022-09-23T12:02:40.239Z,10.49
2022-09-23T12:05:32.661Z,10.51
2022-09-23T12:08:28.713Z,10.48
2022-09-23T12:11:21.463Z,10.55
2022-09-23T12:14:40.405Z,10.75
2022-09-23T12:17:40.788Z,11.27
2022-09-23T12:20:43.799Z,11.64
2022-09-23T12:24:02.699Z,12.25
2022-09-23T12:26:56.221Z,12.81
2022-09-23T12:29:41.706Z,12.64
2022-09-23T12:32:27.401Z,12.04
2022-09-23T12:35:38.135Z,11.29
2022-09-23T12:38:32.618Z,10.72
2022-09-23T12:41:36.843Z,10.44
2022-09-23T12:44:41.181Z,10.19
2022-09-23T12:47:28.405Z,10.15
2022-09-23T12:50:50.997Z,10.30
2022-09-23T12:53:35.880Z,10.32
2022-09-23T12:56:25.990Z,10.45
2022-09-23T12:59:16.802Z,10.75
2022-09-23T13:02:23.853Z,10.90
2022-09-23T13:05:41.615Z,11.17
2022-09-23T13:08:26.744Z,11.61
2022-09-23T13:11:28.134Z,11.63
2022-09-23T13:14:20.510Z,11.48
2022-09-23T13:17:26.482Z,11.19
2022-09-23T13:20:20.444Z,11.01
2022-09-23T13:23:16.594Z,10.90
2022-09-23T13:26:12.087Z,10.89
2022-09-23T13:28:58.411Z,10.91
2022-09-23T13:31:45.147Z,10.92
2022-09-23T13:34:33.020Z,10.87
2022-09-23T13:37:22.661Z,10.76
2022-09-23T13:40:09.355Z,10.58
2022-09-23T13:43:04.607Z,10.27
2022-09-23T13:45:50.087Z,9.98
2022-09-23T13:48:35.384Z,9.74
2022-09-23T13:51:29.808Z,9.62
2022-09-23T13:54:28.217Z,9.48
2022-09-23T13:57:33.197Z,9.39
2022-09-23T14:00:20.861Z,9.38
2022-09-23T14:03:31.173Z,9.55
2022-09-23T14:06:18.995Z,10.25
2022-09-23T14:09:06.005Z,11.38
2022-09-23T14:11:51.568Z,12.67
2022-09-23T14:14:38.973Z,13.54
2022-09-23T14:17:23.871Z,13.81
2022-09-23T14:20:17.345Z,14.44
2022-09-23T14:23:14.217Z,14.63
2022-09-23T14:26:01.062Z,15.04
2022-09-23T14:28:47.146Z,15.14
2022-09-23T14:31:32.382Z,14.98
2022-09-23T14:34:39.258Z,14.14
2022-09-23T14:37:54.904Z,12.91
2022-09-23T14:41:14.548Z,11.68
2022-09-23T14:44:01.778Z,10.83
2022-09-23T14:46:57.009Z,10.23
2022-09-23T14:50:09.911Z,9.84
2022-09-23T14:52:54.975Z,9.63
2022-09-23T14:55:40.986Z,9.60
2022-09-23T14:58:28.041Z,9.59
2022-09-23T15:01:34.125Z,9.55
2022-09-23T15:04:22.257Z,9.48
2022-09-23T15:07:17.894Z,9.39
2022-09-23T15:10:06.248Z,9.30
2022-09-23T15:12:52.962Z,9.19
2022-09-23T15:15:37.977Z,9.00
2022-09-23T15:18:30.444Z,8.72
2022-09-23T15:21:18.827Z,8.42
2022-09-23T15:24:03.613Z,8.30
2022-09-23T15:26:49.442Z,8.22
2022-09-23T15:29:34.045Z,8.17
2022-09-23T15:32:19.972Z,8.19
2022-09-23T15:35:05.384Z,8.18
2022-09-23T15:37:51.051Z,8.17
2022-09-23T15:40:37.181Z,8.18
2022-09-23T15:43:24.533Z,8.22
2022-09-23T15:46:30.013Z,8.24
2022-09-23T15:49:35.629Z,8.26
2022-09-23T15:52:22.161Z,8.27
2022-09-23T15:55:20.730Z,8.27
2022-09-23T15:58:05.684Z,8.23
2022-09-23T16:00:56.252Z,8.21
2022-09-23T16:03:41.753Z,8.19
2022-09-23T16:06:27.410Z,8.16
2022-09-23T16:09:13.007Z,8.11
2022-09-23T16:12:01.548Z,8.05
2022-09-23T16:14:46.233Z,8.02
2022-09-23T16:17:31.699Z,8.00
2022-09-23T16:20:17.290Z,7.97
2022-09-23T16:23:37.031Z,7.92
2022-09-23T16:26:39.072Z,7.91
2022-09-23T16:29:24.022Z,7.91
2022-09-23T16:32:09.302Z,7.91
2022-09-23T16:34:56.279Z,7.88
2022-09-23T16:37:46.623Z,7.85
2022-09-23T16:40:32.077Z,7.77
2022-09-23T16:43:16.925Z,7.60
2022-09-23T16:46:01.766Z,7.45
2022-09-23T16:48:52.069Z,7.30
2022-09-23T16:51:38.302Z,7.17
2022-09-23T16:54:23.925Z,7.09
2022-09-23T16:57:09.241Z,7.07
2022-09-23T17:00:12.429Z,7.03
2022-09-23T17:03:15.856Z,7.06
2022-09-23T17:06:07.809Z,7.07
2022-09-23T17:08:53.661Z,7.02
2022-09-23T17:11:38.421Z,7.04
2022-09-23T17:14:23.323Z,7.01
2022-09-23T17:17:08.378Z,6.96
2022-09-23T17:19:53.365Z,6.94
2022-09-23T17:22:38.305Z,6.90
2022-09-23T17:25:23.810Z,6.83
2022-09-23T17:28:08.952Z,6.79
2022-09-23T17:31:04.378Z,6.83
2022-09-23T17:33:49.425Z,6.87
2022-09-23T17:36:34.088Z,6.93
2022-09-23T17:39:19.128Z,7.03
2022-09-23T17:42:04.489Z,7.12
2022-09-23T17:44:49.650Z,7.15
2022-09-23T17:47:37.351Z,7.26
2022-09-23T17:50:26.284Z,7.30
2022-09-23T17:53:13.596Z,7.34
2022-09-23T17:56:03.839Z,7.37
2022-09-23T17:58:49.733Z,7.42
2022-09-23T18:01:35.079Z,7.42
2022-09-23T18:04:20.534Z,7.45
2022-09-23T18:07:05.349Z,7.43
2022-09-23T18:09:50.476Z,7.41
2022-09-23T18:12:35.445Z,7.43
2022-09-23T18:15:20.459Z,7.44
2022-09-23T18:18:05.763Z,7.43
2022-09-23T18:20:50.477Z,7.42
2022-09-23T18:23:36.867Z,7.40
2022-09-23T18:26:23.529Z,7.40
2022-09-23T18:29:08.806Z,7.37
2022-09-23T18:31:53.670Z,7.36
2022-09-23T18:34:38.525Z,7.38
2022-09-23T18:37:23.651Z,7.38
2022-09-23T18:40:12.599Z,7.39
2022-09-23T18:42:59.755Z,7.39
2022-09-23T18:45:54.821Z,7.41
2022-09-23T18:48:59.088Z,7.42
2022-09-23T18:51:57.420Z,7.40
2022-09-23T18:54:43.455Z,7.41
2022-09-23T18:57:28.197Z,7.41
2022-09-23T19:00:13.310Z,7.39
2022-09-23T19:02:58.058Z,7.39
2022-09-23T19:05:43.104Z,7.40
2022-09-23T19:08:28.197Z,7.39
2022-09-23T19:11:13.280Z,7.38
2022-09-23T19:14:02.592Z,7.36
2022-09-23T19:16:48.573Z,7.38
2022-09-23T19:19:33.460Z,7.36
2022-09-23T19:22:18.880Z,7.36
2022-09-23T19:25:04.272Z,7.34
2022-09-23T19:27:49.190Z,7.34
2022-09-23T19:30:35.136Z,7.36
2022-09-23T19:33:20.524Z,7.34
2022-09-23T19:36:05.682Z,7.36
2022-09-23T19:38:53.699Z,7.39
2022-09-23T19:41:38.515Z,7.38
2022-09-23T19:44:24.786Z,7.40
2022-09-23T19:47:14.824Z,7.39
2022-09-23T19:49:59.693Z,7.37
2022-09-23T19:52:44.676Z,7.35
2022-09-23T19:55:30.666Z,7.33
2022-09-23T19:58:15.643Z,7.31
2022-09-23T20:01:00.911Z,7.25
2022-09-23T20:03:46.608Z,7.22
2022-09-23T20:06:33.712Z,7.16
2022-09-23T20:09:18.837Z,7.08
2022-09-23T20:12:04.252Z,6.99
2022-09-23T20:14:50.944Z,6.91
2022-09-23T20:17:35.948Z,6.78
2022-09-23T20:20:20.724Z,6.66
2022-09-23T20:23:06.092Z,6.56
2022-09-23T20:26:16.945Z,6.44
2022-09-23T20:29:02.094Z,6.35
2022-09-23T20:31:47.404Z,6.32
2022-09-23T20:34:33.914Z,6.35
2022-09-23T20:37:20.487Z,6.37
2022-09-23T20:40:05.680Z,6.36
2022-09-23T20:42:50.420Z,6.36
2022-09-23T20:45:35.389Z,6.38
2022-09-23T20:48:21.727Z,6.41
2022-09-23T20:51:06.452Z,6.45
2022-09-23T20:53:52.507Z,6.47
2022-09-23T20:56:37.422Z,6.44
2022-09-23T20:59:22.453Z,6.40
2022-09-23T21:02:07.413Z,6.36
2022-09-23T21:04:53.173Z,6.35
2022-09-23T21:07:38.382Z,6.36
2022-09-23T21:10:23.667Z,6.41
2022-09-23T21:13:08.243Z,6.47
2022-09-23T21:15:53.282Z,6.53
2022-09-23T21:18:38.416Z,6.60
2022-09-23T21:21:23.481Z,6.66
2022-09-23T21:24:36.056Z,6.71
2022-09-23T21:27:13.404Z,6.76
2022-09-23T21:29:58.549Z,6.80
2022-09-23T21:32:43.377Z,6.84
2022-09-23T21:35:28.352Z,6.86
2022-09-23T21:38:13.258Z,6.87
2022-09-23T21:41:00.079Z,6.88
2022-09-23T21:43:45.250Z,6.88
2022-09-23T21:46:33.247Z,6.89
2022-09-23T21:49:18.020Z,6.93
2022-09-23T21:52:02.909Z,6.96
2022-09-23T21:54:48.288Z,6.98
2022-09-23T21:57:32.952Z,6.98
2022-09-23T22:00:17.971Z,6.99
2022-09-23T22:03:02.679Z,7.00
2022-09-23T22:05:47.736Z,7.01
2022-09-23T22:08:36.406Z,7.03
2022-09-23T22:11:41.688Z,7.04
2022-09-23T22:14:27.065Z,7.02
2022-09-23T22:17:13.935Z,7.01
2022-09-23T22:19:58.530Z,6.98
2022-09-23T22:22:43.942Z,7.00
2022-09-23T22:25:29.240Z,6.97
2022-09-23T22:28:32.828Z,6.97
2022-09-23T22:31:36.312Z,6.96
2022-09-23T22:34:48.424Z,7.00
2022-09-23T22:37:34.159Z,6.98
2022-09-23T22:40:19.486Z,6.97
2022-09-23T22:43:04.510Z,6.97
2022-09-23T22:45:53.028Z,6.96
2022-09-23T22:48:37.797Z,6.95
2022-09-23T22:51:22.803Z,6.94
2022-09-23T22:54:08.637Z,6.90
2022-09-23T22:56:53.776Z,6.87
2022-09-23T22:59:38.523Z,6.84
2022-09-23T23:02:23.598Z,6.80
2022-09-23T23:05:08.710Z,6.75
2022-09-23T23:07:53.650Z,6.68
2022-09-23T23:10:38.793Z,6.66
2022-09-23T23:13:30.874Z,6.68
2022-09-23T23:16:15.941Z,6.66
2022-09-23T23:19:06.499Z,6.68
2022-09-23T23:21:51.663Z,6.71
2022-09-23T23:24:36.863Z,6.73
2022-09-23T23:27:21.666Z,6.76
2022-09-23T23:30:07.730Z,6.74
2022-09-23T23:32:52.529Z,6.73
2022-09-23T23:35:37.604Z,6.68
2022-09-23T23:38:22.613Z,6.63
2022-09-23T23:41:10.931Z,6.56
2022-09-23T23:43:58.350Z,6.56
2022-09-23T23:46:42.982Z,6.52
2022-09-23T23:49:28.125Z,6.51
2022-09-23T23:52:13.012Z,6.51
2022-09-23T23:54:57.752Z,6.51
2022-09-23T23:57:42.964Z,6.52
